UAL352 LJLJ-EDDM
Flight info
| Callsign | UAL352 |
|---|---|
| Flight time | 0h 40m |
| Altitude | 28000 |
| Route | GIMIX DCT RASTA DCT REDBU Q112 NAPSA |
| Aircraft | B738/M-SDE2E3FGHIRWXY/LB1 |
Departure
| Time | 2026-04-17 10:41 |
|---|---|
| Airport | Ljubljana Jože Pučnik Airport (LJLJ) |
Arrival
| Time | 2026-04-17 11:22 |
|---|---|
| Airport | Munich Airport (EDDM) |
| Time | Latitude | Longitude | Altitude | Speed | Heading |
|---|---|---|---|---|---|
| 2026-04-17 10:40 | 46.21512 | 14.47436 | 1198 ft | 0 kts | 306° |
| 2026-04-17 10:40 | 46.21513 | 14.47432 | 1198 ft | 2 kts | 306° |
| 2026-04-17 10:40 | 46.21665 | 14.47137 | 1204 ft | 80 kts | 308° |
| 2026-04-17 10:41 | 46.22171 | 14.46166 | 1228 ft | 156 kts | 307° |
| 2026-04-17 10:41 | 46.22881 | 14.44735 | 1662 ft | 187 kts | 307° |
| 2026-04-17 10:41 | 46.23637 | 14.43271 | 2734 ft | 185 kts | 309° |
| 2026-04-17 10:41 | 46.24311 | 14.41709 | 3451 ft | 195 kts | 292° |
| 2026-04-17 10:42 | 46.24401 | 14.39624 | 3924 ft | 222 kts | 262° |
| 2026-04-17 10:42 | 46.24165 | 14.37300 | 4534 ft | 241 kts | 266° |
| 2026-04-17 10:42 | 46.24158 | 14.34939 | 5624 ft | 236 kts | 277° |
| 2026-04-17 10:42 | 46.24330 | 14.32589 | 6577 ft | 237 kts | 280° |
| 2026-04-17 10:43 | 46.24553 | 14.30236 | 7514 ft | 238 kts | 279° |
| 2026-04-17 10:43 | 46.24730 | 14.27860 | 8474 ft | 239 kts | 278° |
| 2026-04-17 10:43 | 46.24878 | 14.25503 | 9377 ft | 240 kts | 277° |
| 2026-04-17 10:43 | 46.25026 | 14.23108 | 10259 ft | 242 kts | 278° |
| 2026-04-17 10:44 | 46.25180 | 14.20706 | 11090 ft | 245 kts | 278° |
| 2026-04-17 10:44 | 46.25339 | 14.18268 | 11929 ft | 247 kts | 279° |
| 2026-04-17 10:44 | 46.25500 | 14.15787 | 12751 ft | 249 kts | 279° |
| 2026-04-17 10:44 | 46.25660 | 14.13324 | 13544 ft | 252 kts | 279° |
| 2026-04-17 10:45 | 46.25827 | 14.10811 | 14324 ft | 254 kts | 282° |
| 2026-04-17 10:45 | 46.26441 | 14.08402 | 14788 ft | 261 kts | 309° |
| 2026-04-17 10:45 | 46.27728 | 14.06450 | 15352 ft | 270 kts | 320° |
| 2026-04-17 10:45 | 46.29213 | 14.04580 | 15837 ft | 285 kts | 320° |
| 2026-04-17 10:46 | 46.30751 | 14.02561 | 16339 ft | 300 kts | 318° |
| 2026-04-17 10:46 | 46.32330 | 14.00365 | 16834 ft | 315 kts | 317° |
| 2026-04-17 10:46 | 46.33956 | 13.98036 | 17304 ft | 329 kts | 316° |
| 2026-04-17 10:46 | 46.35646 | 13.95593 | 17763 ft | 344 kts | 316° |
| 2026-04-17 10:47 | 46.37369 | 13.93100 | 18170 ft | 358 kts | 316° |
| 2026-04-17 10:47 | 46.39183 | 13.90478 | 18680 ft | 370 kts | 316° |
| 2026-04-17 10:47 | 46.41025 | 13.87817 | 19357 ft | 377 kts | 316° |
| 2026-04-17 10:47 | 46.42892 | 13.85119 | 20128 ft | 380 kts | 316° |
| 2026-04-17 10:48 | 46.44785 | 13.82385 | 20868 ft | 384 kts | 316° |
| 2026-04-17 10:48 | 46.46685 | 13.79638 | 21603 ft | 387 kts | 316° |
| 2026-04-17 10:48 | 46.48627 | 13.76847 | 22331 ft | 390 kts | 317° |
| 2026-04-17 10:48 | 46.50652 | 13.74161 | 23076 ft | 391 kts | 322° |
| 2026-04-17 10:49 | 46.52936 | 13.71888 | 23727 ft | 394 kts | 331° |
| 2026-04-17 10:49 | 46.55447 | 13.70147 | 24500 ft | 395 kts | 338° |
| 2026-04-17 10:49 | 46.58020 | 13.68832 | 25150 ft | 389 kts | 342° |
| 2026-04-17 10:49 | 46.60540 | 13.67332 | 25594 ft | 390 kts | 332° |
| 2026-04-17 10:50 | 46.62843 | 13.65133 | 26056 ft | 395 kts | 324° |
| 2026-04-17 10:50 | 46.65066 | 13.62593 | 26525 ft | 399 kts | 322° |
| 2026-04-17 10:50 | 46.67222 | 13.59981 | 26981 ft | 402 kts | 321° |
| 2026-04-17 10:50 | 46.69382 | 13.57315 | 27438 ft | 405 kts | 321° |
| 2026-04-17 10:51 | 46.71589 | 13.54578 | 27904 ft | 410 kts | 321° |
| 2026-04-17 10:51 | 46.73794 | 13.51845 | 28203 ft | 416 kts | 321° |
| 2026-04-17 10:51 | 46.76044 | 13.49059 | 28216 ft | 415 kts | 321° |
| 2026-04-17 10:52 | 46.80479 | 13.43568 | 28220 ft | 413 kts | 321° |
| 2026-04-17 10:52 | 46.85319 | 13.38890 | 28228 ft | 421 kts | 339° |
| 2026-04-17 10:52 | 46.88210 | 13.37603 | 28212 ft | 432 kts | 345° |
| 2026-04-17 10:53 | 46.91192 | 13.36507 | 28199 ft | 431 kts | 345° |
| 2026-04-17 10:53 | 46.97077 | 13.34249 | 28192 ft | 431 kts | 343° |
| 2026-04-17 10:54 | 47.02850 | 13.31668 | 28189 ft | 432 kts | 341° |
| 2026-04-17 10:54 | 47.08619 | 13.28816 | 28192 ft | 431 kts | 340° |
| 2026-04-17 10:55 | 47.14331 | 13.25850 | 28193 ft | 430 kts | 339° |
| 2026-04-17 10:55 | 47.20063 | 13.22811 | 28194 ft | 430 kts | 339° |
| 2026-04-17 10:56 | 47.25736 | 13.19781 | 28209 ft | 430 kts | 339° |
| 2026-04-17 10:56 | 47.31382 | 13.16754 | 28215 ft | 430 kts | 339° |
| 2026-04-17 10:57 | 47.37075 | 13.13694 | 28210 ft | 430 kts | 339° |
| 2026-04-17 10:57 | 47.42800 | 13.10612 | 28214 ft | 430 kts | 339° |
| 2026-04-17 10:58 | 47.48484 | 13.07544 | 28211 ft | 430 kts | 339° |
| 2026-04-17 10:58 | 47.54137 | 13.04486 | 28224 ft | 429 kts | 339° |
| 2026-04-17 10:59 | 47.59824 | 13.01402 | 28228 ft | 428 kts | 339° |
| 2026-04-17 10:59 | 47.65512 | 12.98312 | 28219 ft | 427 kts | 339° |
| 2026-04-17 10:59 | 47.68333 | 12.96778 | 28214 ft | 413 kts | 339° |
| 2026-04-17 11:00 | 47.71036 | 12.95305 | 28217 ft | 414 kts | 339° |
| 2026-04-17 11:00 | 47.73839 | 12.93775 | 28213 ft | 426 kts | 339° |
| 2026-04-17 11:00 | 47.76657 | 12.92235 | 28209 ft | 430 kts | 339° |
| 2026-04-17 11:01 | 47.82339 | 12.89125 | 28211 ft | 427 kts | 339° |
| 2026-04-17 11:01 | 47.88007 | 12.86016 | 28208 ft | 428 kts | 339° |
| 2026-04-17 11:02 | 47.93507 | 12.82340 | 28193 ft | 415 kts | 328° |
| 2026-04-17 11:02 | 47.95770 | 12.79676 | 27968 ft | 403 kts | 317° |
| 2026-04-17 11:02 | 47.97620 | 12.76486 | 27437 ft | 399 kts | 308° |
| 2026-04-17 11:02 | 47.99189 | 12.73031 | 26888 ft | 395 kts | 305° |
| 2026-04-17 11:03 | 48.00645 | 12.69480 | 26455 ft | 387 kts | 303° |
| 2026-04-17 11:03 | 48.02007 | 12.66014 | 26004 ft | 381 kts | 303° |
| 2026-04-17 11:03 | 48.03361 | 12.62522 | 25558 ft | 383 kts | 303° |
| 2026-04-17 11:03 | 48.04747 | 12.58959 | 25073 ft | 399 kts | 303° |
| 2026-04-17 11:04 | 48.06173 | 12.55308 | 24568 ft | 395 kts | 303° |
| 2026-04-17 11:04 | 48.07555 | 12.51791 | 24134 ft | 387 kts | 303° |
| 2026-04-17 11:04 | 48.08935 | 12.48313 | 23668 ft | 380 kts | 304° |
| 2026-04-17 11:04 | 48.10303 | 12.44880 | 23171 ft | 375 kts | 304° |
| 2026-04-17 11:05 | 48.11649 | 12.41510 | 22730 ft | 368 kts | 304° |
| 2026-04-17 11:05 | 48.13043 | 12.38307 | 22366 ft | 361 kts | 308° |
| 2026-04-17 11:05 | 48.14742 | 12.35383 | 21949 ft | 376 kts | 319° |
| 2026-04-17 11:05 | 48.16863 | 12.32946 | 21486 ft | 378 kts | 328° |
| 2026-04-17 11:06 | 48.19165 | 12.31002 | 21019 ft | 375 kts | 332° |
| 2026-04-17 11:06 | 48.21437 | 12.29140 | 20532 ft | 374 kts | 328° |
| 2026-04-17 11:06 | 48.23495 | 12.26705 | 20081 ft | 372 kts | 316° |
| 2026-04-17 11:06 | 48.25169 | 12.23707 | 19655 ft | 371 kts | 306° |
| 2026-04-17 11:07 | 48.26517 | 12.20333 | 19241 ft | 371 kts | 299° |
| 2026-04-17 11:07 | 48.27605 | 12.16787 | 19076 ft | 371 kts | 294° |
| 2026-04-17 11:07 | 48.28386 | 12.13059 | 18455 ft | 378 kts | 284° |
| 2026-04-17 11:07 | 48.28668 | 12.09094 | 17935 ft | 375 kts | 274° |
| 2026-04-17 11:08 | 48.28632 | 12.05184 | 17525 ft | 370 kts | 269° |
| 2026-04-17 11:08 | 48.28325 | 12.01341 | 17118 ft | 371 kts | 262° |
| 2026-04-17 11:08 | 48.27656 | 11.97553 | 16715 ft | 371 kts | 255° |
| 2026-04-17 11:08 | 48.26921 | 11.93826 | 16293 ft | 368 kts | 258° |
| 2026-04-17 11:09 | 48.26379 | 11.90066 | 15880 ft | 364 kts | 263° |
| 2026-04-17 11:09 | 48.26023 | 11.86243 | 15504 ft | 362 kts | 266° |
| 2026-04-17 11:09 | 48.25766 | 11.82445 | 15094 ft | 360 kts | 267° |
| 2026-04-17 11:10 | 48.25277 | 11.74754 | 14292 ft | 356 kts | 266° |
| 2026-04-17 11:10 | 48.25017 | 11.71015 | 13893 ft | 355 kts | 266° |
| 2026-04-17 11:10 | 48.24741 | 11.67271 | 13499 ft | 353 kts | 266° |
| 2026-04-17 11:10 | 48.24457 | 11.63567 | 13118 ft | 351 kts | 265° |
| 2026-04-17 11:11 | 48.24165 | 11.59835 | 12730 ft | 350 kts | 265° |
| 2026-04-17 11:11 | 48.23881 | 11.56234 | 12336 ft | 348 kts | 265° |
| 2026-04-17 11:11 | 48.23592 | 11.52605 | 11963 ft | 347 kts | 265° |
| 2026-04-17 11:11 | 48.23299 | 11.48925 | 11581 ft | 346 kts | 265° |
| 2026-04-17 11:12 | 48.23011 | 11.45333 | 11205 ft | 344 kts | 265° |
| 2026-04-17 11:12 | 48.22721 | 11.41715 | 10838 ft | 343 kts | 265° |
| 2026-04-17 11:12 | 48.22434 | 11.38146 | 10469 ft | 341 kts | 265° |
| 2026-04-17 11:12 | 48.22148 | 11.34594 | 10105 ft | 334 kts | 264° |
| 2026-04-17 11:13 | 48.21867 | 11.31116 | 9762 ft | 326 kts | 264° |
| 2026-04-17 11:13 | 48.21685 | 11.27704 | 9387 ft | 319 kts | 270° |
| 2026-04-17 11:13 | 48.21993 | 11.24474 | 9044 ft | 305 kts | 291° |
| 2026-04-17 11:13 | 48.23122 | 11.21935 | 8833 ft | 284 kts | 320° |
| 2026-04-17 11:14 | 48.24790 | 11.20415 | 8827 ft | 273 kts | 339° |
| 2026-04-17 11:14 | 48.26604 | 11.19638 | 8806 ft | 268 kts | 350° |
| 2026-04-17 11:14 | 48.28489 | 11.19472 | 8535 ft | 272 kts | 8° |
| 2026-04-17 11:14 | 48.30239 | 11.20467 | 8291 ft | 268 kts | 35° |
| 2026-04-17 11:15 | 48.31491 | 11.22569 | 7988 ft | 267 kts | 63° |
| 2026-04-17 11:15 | 48.32063 | 11.25206 | 7724 ft | 264 kts | 77° |
| 2026-04-17 11:15 | 48.32379 | 11.27964 | 7439 ft | 264 kts | 81° |
| 2026-04-17 11:15 | 48.32616 | 11.30703 | 7226 ft | 261 kts | 82° |
| 2026-04-17 11:16 | 48.32837 | 11.33483 | 6817 ft | 264 kts | 82° |
| 2026-04-17 11:16 | 48.33059 | 11.36234 | 6533 ft | 261 kts | 82° |
| 2026-04-17 11:16 | 48.33278 | 11.38918 | 6276 ft | 256 kts | 82° |
| 2026-04-17 11:16 | 48.33492 | 11.41554 | 6143 ft | 248 kts | 82° |
| 2026-04-17 11:17 | 48.33703 | 11.44163 | 5793 ft | 248 kts | 82° |
| 2026-04-17 11:17 | 48.33911 | 11.46764 | 5390 ft | 246 kts | 82° |
| 2026-04-17 11:17 | 48.34114 | 11.49289 | 5082 ft | 236 kts | 82° |
| 2026-04-17 11:17 | 48.34308 | 11.51721 | 4763 ft | 228 kts | 82° |
| 2026-04-17 11:18 | 48.34498 | 11.54103 | 4447 ft | 221 kts | 82° |
| 2026-04-17 11:18 | 48.34677 | 11.56358 | 4165 ft | 210 kts | 82° |
| 2026-04-17 11:18 | 48.34846 | 11.58503 | 3859 ft | 201 kts | 82° |
| 2026-04-17 11:18 | 48.35011 | 11.60586 | 3603 ft | 186 kts | 82° |
| 2026-04-17 11:19 | 48.35156 | 11.62437 | 3329 ft | 173 kts | 82° |
| 2026-04-17 11:19 | 48.35290 | 11.64140 | 3132 ft | 156 kts | 82° |
| 2026-04-17 11:19 | 48.35415 | 11.65708 | 2893 ft | 146 kts | 83° |
| 2026-04-17 11:19 | 48.35538 | 11.67266 | 2733 ft | 148 kts | 82° |
| 2026-04-17 11:20 | 48.35674 | 11.68838 | 2551 ft | 149 kts | 84° |
| 2026-04-17 11:20 | 48.35783 | 11.70435 | 2309 ft | 153 kts | 84° |
| 2026-04-17 11:20 | 48.35905 | 11.72060 | 2106 ft | 151 kts | 83° |
| 2026-04-17 11:20 | 48.36033 | 11.73642 | 1900 ft | 149 kts | 85° |
| 2026-04-17 11:21 | 48.36141 | 11.75210 | 1699 ft | 145 kts | 81° |
| 2026-04-17 11:21 | 48.36282 | 11.76724 | 1509 ft | 142 kts | 85° |
| 2026-04-17 11:21 | 48.36380 | 11.78120 | 1461 ft | 105 kts | 84° |
| 2026-04-17 11:21 | 48.36450 | 11.78916 | 1461 ft | 58 kts | 80° |
| 2026-04-17 11:22 | 48.36481 | 11.79373 | 1457 ft | 38 kts | 85° |
| 2026-04-17 11:22 | 48.36500 | 11.79850 | 1454 ft | 49 kts | 94° |
| 2026-04-17 11:22 | 48.36424 | 11.80293 | 1451 ft | 33 kts | 111° |
| 2026-04-17 11:22 | 48.36412 | 11.80339 | 1451 ft | 0 kts | 111° |
| 2026-04-17 11:23 | 48.36380 | 11.80445 | 1451 ft | 9 kts | 120° |